Time,TemperatureF,DewpointF,PressureIn,WindDirection,WindDirectionDegrees,WindSpeedMPH,WindSpeedGustMPH,Humidity,HourlyPrecipIn,Conditions,Clouds,dailyrainin,SolarRadiationWatts/m^2,SoftwareType,DateUTC
2013-06-10 00:01:00,58.0,56.9,30.14,North,360,0.0,0.0,96,0.00,,,0.00,0,Wunderground v.1.15,2013-06-10 04:01:00,
2013-06-10 00:03:00,57.9,56.8,30.14,North,360,0.0,0.0,96,0.00,,,0.00,0,Wunderground v.1.15,2013-06-10 04:03:00,
2013-06-10 00:04:00,57.9,56.8,30.14,North,360,0.0,0.0,96,0.00,,,0.00,0,Wunderground v.1.15,2013-06-10 04:04:00,
2013-06-10 00:09:00,57.8,56.7,30.14,North,360,0.0,0.0,96,0.00,,,0.00,0,Wunderground v.1.15,2013-06-10 04:09:00,
2013-06-10 00:12:00,57.7,56.6,30.14,North,360,0.0,0.0,96,0.00,,,0.00,0,Wunderground v.1.15,2013-06-10 04:12:00,
2013-06-10 00:18:00,57.5,56.4,30.14,North,360,0.0,0.0,96,0.00,,,0.00,0,Wunderground v.1.15,2013-06-10 04:18:00,
2013-06-10 00:24:00,57.2,56.1,30.14,North,5,1.0,3.0,96,0.00,,,0.00,0,Wunderground v.1.15,2013-06-10 04:24:00,
2013-06-10 00:30:00,57.0,55.9,30.14,North,5,1.0,1.0,96,0.00,,,0.00,0,Wunderground v.1.15,2013-06-10 04:30:00,
2013-06-10 00:35:00,56.9,55.8,30.15,North,5,1.0,2.0,96,0.00,,,0.00,0,Wunderground v.1.15,2013-06-10 04:35:00,
2013-06-10 00:40:00,56.7,55.6,30.15,NE,37,1.0,1.0,96,0.00,,,0.00,0,Wunderground v.1.15,2013-06-10 04:40:00,
2013-06-10 00:45:00,56.6,55.5,30.15,NE,37,0.0,1.0,96,0.00,,,0.00,0,Wunderground v.1.15,2013-06-10 04:45:00,
2013-06-10 00:51:00,56.5,55.4,30.15,NE,37,0.0,0.0,96,0.00,,,0.00,0,Wunderground v.1.15,2013-06-10 04:51:00,
2013-06-10 00:57:00,56.4,55.3,30.15,NE,37,0.0,0.0,96,0.00,,,0.00,0,Wunderground v.1.15,2013-06-10 04:57:00,
2013-06-10 01:02:00,56.4,55.3,30.15,NE,37,0.0,0.0,96,0.00,,,0.00,0,Wunderground v.1.15,2013-06-10 05:02:00,
2013-06-10 01:07:00,56.4,55.3,30.14,NE,37,0.0,0.0,96,0.00,,,0.00,0,Wunderground v.1.15,2013-06-10 05:07:00,
2013-06-10 01:12:00,56.3,55.2,30.14,NE,37,0.0,0.0,96,0.00,,,0.00,0,Wunderground v.1.15,2013-06-10 05:12:00,
2013-06-10 01:17:00,56.2,55.1,30.15,NE,37,0.0,0.0,96,0.00,,,0.00,0,Wunderground v.1.15,2013-06-10 05:17:00,
2013-06-10 01:23:00,56.0,54.9,30.14,NE,37,0.0,0.0,96,0.00,,,0.00,0,Wunderground v.1.15,2013-06-10 05:23:00,
2013-06-10 01:28:00,55.9,54.8,30.14,NE,37,0.0,0.0,96,0.00,,,0.00,0,Wunderground v.1.15,2013-06-10 05:28:00,
2013-06-10 01:34:00,55.9,54.8,30.14,NE,37,0.0,2.0,96,0.00,,,0.00,0,Wunderground v.1.15,2013-06-10 05:34:00,
2013-06-10 01:39:00,55.8,54.7,30.14,NE,35,1.0,2.0,96,0.00,,,0.00,0,Wunderground v.1.15,2013-06-10 05:39:00,
2013-06-10 01:45:00,55.8,54.7,30.14,North,355,1.0,2.0,96,0.00,,,0.00,0,Wunderground v.1.15,2013-06-10 05:45:00,
2013-06-10 01:50:00,55.8,54.7,30.14,North,355,1.0,1.0,96,0.00,,,0.00,0,Wunderground v.1.15,2013-06-10 05:50:00,
2013-06-10 01:56:00,55.7,54.6,30.14,North,355,0.0,1.0,96,0.00,,,0.00,0,Wunderground v.1.15,2013-06-10 05:56:00,
2013-06-10 02:02:00,55.6,54.5,30.14,North,355,0.0,0.0,96,0.00,,,0.00,0,Wunderground v.1.15,2013-06-10 06:02:00,
2013-06-10 02:08:00,55.4,54.3,30.14,North,355,0.0,0.0,96,0.00,,,0.00,0,Wunderground v.1.15,2013-06-10 06:08:00,
2013-06-10 02:13:00,55.4,54.3,30.14,North,355,0.0,1.0,96,0.00,,,0.00,0,Wunderground v.1.15,2013-06-10 06:13:00,
2013-06-10 02:19:00,55.2,54.1,30.15,North,355,0.0,1.0,96,0.00,,,0.00,0,Wunderground v.1.15,2013-06-10 06:19:00,
2013-06-10 02:24:00,55.0,53.9,30.15,North,355,0.0,1.0,96,0.00,,,0.00,0,Wunderground v.1.15,2013-06-10 06:24:00,
2013-06-10 02:29:00,54.9,53.8,30.15,North,355,0.0,1.0,96,0.00,,,0.00,0,Wunderground v.1.15,2013-06-10 06:29:00,
2013-06-10 02:35:00,54.7,53.6,30.15,North,355,0.0,1.0,96,0.00,,,0.00,0,Wunderground v.1.15,2013-06-10 06:35:00,
2013-06-10 02:41:00,54.6,53.5,30.15,North,355,0.0,0.0,96,0.00,,,0.00,0,Wunderground v.1.15,2013-06-10 06:41:00,
2013-06-10 02:47:00,54.5,53.4,30.15,North,355,0.0,0.0,96,0.00,,,0.00,0,Wunderground v.1.15,2013-06-10 06:47:00,
2013-06-10 02:52:00,54.5,53.4,30.15,North,355,0.0,0.0,96,0.00,,,0.00,0,Wunderground v.1.15,2013-06-10 06:52:00,
2013-06-10 02:57:00,54.3,53.2,30.15,North,355,0.0,0.0,96,0.00,,,0.00,0,Wunderground v.1.15,2013-06-10 06:57:00,
2013-06-10 03:02:00,54.2,53.1,30.15,North,355,0.0,0.0,96,0.00,,,0.00,0,Wunderground v.1.15,2013-06-10 07:02:00,
2013-06-10 03:08:00,54.0,52.9,30.15,North,355,0.0,0.0,96,0.00,,,0.00,0,Wunderground v.1.15,2013-06-10 07:08:00,
2013-06-10 03:13:00,53.9,52.8,30.15,North,355,0.0,1.0,96,0.00,,,0.00,0,Wunderground v.1.15,2013-06-10 07:13:00,
2013-06-10 03:19:00,53.9,52.8,30.15,NE,35,0.0,1.0,96,0.00,,,0.00,0,Wunderground v.1.15,2013-06-10 07:19:00,
2013-06-10 03:25:00,53.8,53.0,30.15,NE,35,0.0,0.0,97,0.00,,,0.00,0,Wunderground v.1.15,2013-06-10 07:25:00,
2013-06-10 03:30:00,53.5,52.4,30.15,NE,35,0.0,0.0,96,0.00,,,0.00,0,Wunderground v.1.15,2013-06-10 07:30:00,
2013-06-10 03:35:00,53.2,52.1,30.15,NE,35,0.0,0.0,96,0.00,,,0.00,0,Wunderground v.1.15,2013-06-10 07:35:00,
2013-06-10 03:40:00,53.1,52.0,30.15,NE,34,0.0,0.0,96,0.00,,,0.00,0,Wunderground v.1.15,2013-06-10 07:40:00,
2013-06-10 03:46:00,53.0,51.9,30.15,NE,35,0.0,0.0,96,0.00,,,0.00,0,Wunderground v.1.15,2013-06-10 07:46:00,
2013-06-10 03:52:00,52.9,51.8,30.15,NE,35,0.0,0.0,96,0.00,,,0.00,0,Wunderground v.1.15,2013-06-10 07:52:00,
2013-06-10 03:58:00,52.8,51.7,30.15,NE,35,0.0,0.0,96,0.00,,,0.00,0,Wunderground v.1.15,2013-06-10 07:58:00,
2013-06-10 04:03:00,52.7,51.6,30.16,NE,35,0.0,0.0,96,0.00,,,0.00,0,Wunderground v.1.15,2013-06-10 08:03:00,
2013-06-10 04:08:00,52.6,51.8,30.16,NE,34,0.0,0.0,97,0.00,,,0.00,0,Wunderground v.1.15,2013-06-10 08:08:00,
2013-06-10 04:14:00,52.4,51.6,30.16,NE,35,0.0,0.0,97,0.00,,,0.00,0,Wunderground v.1.15,2013-06-10 08:14:00,
2013-06-10 04:20:00,52.2,51.1,30.16,NE,35,0.0,0.0,96,0.00,,,0.00,0,Wunderground v.1.15,2013-06-10 08:20:00,
2013-06-10 04:25:00,51.9,50.8,30.16,NE,35,0.0,0.0,96,0.00,,,0.00,0,Wunderground v.1.15,2013-06-10 08:25:00,
2013-06-10 04:31:00,51.8,51.0,30.17,NE,35,0.0,0.0,97,0.00,,,0.00,0,Wunderground v.1.15,2013-06-10 08:31:00,
2013-06-10 04:37:00,51.7,50.9,30.17,NE,35,0.0,0.0,97,0.00,,,0.00,0,Wunderground v.1.15,2013-06-10 08:37:00,
2013-06-10 04:43:00,51.7,50.9,30.17,NE,35,0.0,0.0,97,0.00,,,0.00,0,Wunderground v.1.15,2013-06-10 08:43:00,
2013-06-10 04:48:00,51.6,50.8,30.17,NE,35,0.0,0.0,97,0.00,,,0.00,0,Wunderground v.1.15,2013-06-10 08:48:00,
2013-06-10 04:54:00,51.5,50.7,30.17,NE,35,0.0,0.0,97,0.00,,,0.00,5,Wunderground v.1.15,2013-06-10 08:54:00,
2013-06-10 05:00:00,51.3,50.5,30.17,NE,35,0.0,0.0,97,0.00,,,0.00,9,Wunderground v.1.15,2013-06-10 09:00:00,
2013-06-10 05:05:00,51.1,50.0,30.17,NE,35,0.0,0.0,96,0.00,,,0.00,12,Wunderground v.1.15,2013-06-10 09:05:00,
2013-06-10 05:11:00,50.9,49.8,30.17,NE,34,0.0,0.0,96,0.00,,,0.00,16,Wunderground v.1.15,2013-06-10 09:11:00,
2013-06-10 05:17:00,50.7,49.9,30.17,NE,35,0.0,0.0,97,0.00,,,0.00,25,Wunderground v.1.15,2013-06-10 09:17:00,
2013-06-10 05:22:00,50.6,49.8,30.18,NE,34,0.0,0.0,97,0.00,,,0.00,28,Wunderground v.1.15,2013-06-10 09:22:00,
2013-06-10 05:27:00,50.5,49.7,30.18,NE,35,0.0,0.0,97,0.00,,,0.00,32,Wunderground v.1.15,2013-06-10 09:27:00,
2013-06-10 05:32:00,50.5,49.7,30.18,NE,35,0.0,0.0,97,0.00,,,0.00,32,Wunderground v.1.15,2013-06-10 09:32:00,
2013-06-10 05:38:00,50.7,49.9,30.18,NE,35,0.0,0.0,97,0.00,,,0.00,30,Wunderground v.1.15,2013-06-10 09:38:00,
2013-06-10 05:44:00,50.8,50.0,30.19,NE,34,0.0,0.0,97,0.00,,,0.00,32,Wunderground v.1.15,2013-06-10 09:44:00,
2013-06-10 05:49:00,50.7,49.9,30.19,NE,35,0.0,0.0,97,0.00,,,0.00,35,Wunderground v.1.15,2013-06-10 09:49:00,
2013-06-10 05:54:00,50.7,49.9,30.19,NE,34,0.0,0.0,97,0.00,,,0.00,42,Wunderground v.1.15,2013-06-10 09:54:00,
2013-06-10 06:00:00,50.8,50.0,30.19,NE,35,0.0,0.0,97,0.00,,,0.00,60,Wunderground v.1.15,2013-06-10 10:00:00,
2013-06-10 06:06:00,51.0,50.5,30.19,NE,35,0.0,0.0,98,0.00,,,0.00,62,Wunderground v.1.15,2013-06-10 10:06:00,
2013-06-10 06:11:00,51.3,50.8,30.19,NE,34,0.0,0.0,98,0.00,,,0.00,63,Wunderground v.1.15,2013-06-10 10:11:00,
2013-06-10 06:17:00,51.7,51.2,30.19,NE,35,0.0,1.0,98,0.00,,,0.00,67,Wunderground v.1.15,2013-06-10 10:17:00,
2013-06-10 06:23:00,51.8,51.3,30.19,NE,34,0.0,0.0,98,0.00,,,0.00,74,Wunderground v.1.15,2013-06-10 10:23:00,
2013-06-10 06:28:00,51.9,51.4,30.19,NE,34,0.0,0.0,98,0.00,,,0.00,81,Wunderground v.1.15,2013-06-10 10:28:00,
2013-06-10 06:34:00,52.0,51.5,30.20,NE,35,0.0,0.0,98,0.00,,,0.00,91,Wunderground v.1.15,2013-06-10 10:34:00,
2013-06-10 06:40:00,52.1,51.6,30.19,NE,35,0.0,0.0,98,0.00,,,0.00,105,Wunderground v.1.15,2013-06-10 10:40:00,
2013-06-10 06:45:00,52.4,51.9,30.20,NE,35,0.0,0.0,98,0.00,,,0.00,120,Wunderground v.1.15,2013-06-10 10:45:00,
2013-06-10 06:50:00,52.8,52.3,30.19,NE,35,0.0,0.0,98,0.00,,,0.00,163,Wunderground v.1.15,2013-06-10 10:50:00,
2013-06-10 06:55:00,53.1,52.6,30.20,NE,35,0.0,0.0,98,0.00,,,0.00,213,Wunderground v.1.15,2013-06-10 10:55:00,
2013-06-10 07:00:00,53.5,52.9,30.20,NE,35,0.0,0.0,98,0.00,,,0.00,192,Wunderground v.1.15,2013-06-10 11:00:00,
2013-06-10 07:05:00,54.0,53.4,30.20,NE,34,0.0,0.0,98,0.00,,,0.00,193,Wunderground v.1.15,2013-06-10 11:05:00,
2013-06-10 07:10:00,54.4,54.1,30.20,NE,34,0.0,0.0,99,0.00,,,0.00,176,Wunderground v.1.15,2013-06-10 11:10:00,
2013-06-10 07:15:00,54.7,54.1,30.20,NE,34,0.0,0.0,98,0.00,,,0.00,185,Wunderground v.1.15,2013-06-10 11:15:00,
2013-06-10 07:21:00,55.1,54.8,30.20,South,185,0.0,1.0,99,0.00,,,0.00,200,Wunderground v.1.15,2013-06-10 11:21:00,
2013-06-10 07:27:00,55.4,54.8,30.21,South,185,0.0,1.0,98,0.00,,,0.00,202,Wunderground v.1.15,2013-06-10 11:27:00,
2013-06-10 07:33:00,55.8,55.2,30.21,South,185,0.0,0.0,98,0.00,,,0.00,243,Wunderground v.1.15,2013-06-10 11:33:00,
2013-06-10 07:38:00,56.1,55.5,30.21,South,185,0.0,0.0,98,0.00,,,0.00,248,Wunderground v.1.15,2013-06-10 11:38:00,
2013-06-10 07:43:00,56.3,55.7,30.22,South,185,0.0,0.0,98,0.00,,,0.00,251,Wunderground v.1.15,2013-06-10 11:43:00,
2013-06-10 07:48:00,56.9,56.3,30.22,South,185,0.0,0.0,98,0.00,,,0.00,281,Wunderground v.1.15,2013-06-10 11:48:00,
2013-06-10 07:53:00,57.2,56.6,30.22,South,185,0.0,0.0,98,0.00,,,0.00,271,Wunderground v.1.15,2013-06-10 11:53:00,
2013-06-10 07:58:00,57.7,57.1,30.22,South,185,0.0,0.0,98,0.00,,,0.00,322,Wunderground v.1.15,2013-06-10 11:58:00,
2013-06-10 08:03:00,57.8,57.0,30.22,WSW,243,1.0,2.0,97,0.00,,,0.00,313,Wunderground v.1.15,2013-06-10 12:03:00,
2013-06-10 08:08:00,58.2,57.4,30.22,WSW,243,1.0,2.0,97,0.00,,,0.00,316,Wunderground v.1.15,2013-06-10 12:08:00,
2013-06-10 08:13:00,58.6,57.5,30.22,WSW,243,0.0,1.0,96,0.00,,,0.00,301,Wunderground v.1.15,2013-06-10 12:13:00,
2013-06-10 08:18:00,59.0,57.3,30.22,NW,315,0.0,2.0,94,0.00,,,0.00,380,Wunderground v.1.15,2013-06-10 12:18:00,
2013-06-10 08:23:00,59.4,57.1,30.22,North,11,1.0,4.0,92,0.00,,,0.00,432,Wunderground v.1.15,2013-06-10 12:23:00,
2013-06-10 08:28:00,59.9,56.6,30.21,NW,318,2.0,4.0,89,0.00,,,0.00,392,Wunderground v.1.15,2013-06-10 12:28:00,
2013-06-10 08:33:00,60.3,56.4,30.21,NNW,336,2.0,4.0,87,0.00,,,0.00,482,Wunderground v.1.15,2013-06-10 12:33:00,
2013-06-10 08:39:00,61.0,56.8,30.21,NNE,16,2.0,4.0,86,0.00,,,0.00,499,Wunderground v.1.15,2013-06-10 12:39:00,
2013-06-10 08:44:00,61.6,57.0,30.21,WNW,292,1.0,4.0,85,0.00,,,0.00,520,Wunderground v.1.15,2013-06-10 12:44:00,
2013-06-10 08:50:00,61.9,56.0,30.21,NNW,343,2.0,2.0,81,0.00,,,0.00,568,Wunderground v.1.15,2013-06-10 12:50:00,
2013-06-10 08:55:00,62.5,56.6,30.20,WNW,285,2.0,2.0,81,0.00,,,0.00,575,Wunderground v.1.15,2013-06-10 12:55:00,
2013-06-10 09:00:00,62.9,56.3,30.20,NNW,348,2.0,4.0,79,0.00,,,0.00,596,Wunderground v.1.15,2013-06-10 13:00:00,
2013-06-10 09:05:00,63.3,56.3,30.20,NNW,344,2.0,4.0,78,0.00,,,0.00,633,Wunderground v.1.15,2013-06-10 13:05:00,
2013-06-10 09:10:00,63.7,56.0,30.20,North,350,2.0,2.0,76,0.00,,,0.00,624,Wunderground v.1.15,2013-06-10 13:10:00,
2013-06-10 09:16:00,63.9,55.1,30.20,NNW,342,4.0,7.0,73,0.00,,,0.00,624,Wunderground v.1.15,2013-06-10 13:16:00,
2013-06-10 09:22:00,64.6,55.7,30.20,NNW,344,2.0,3.0,73,0.00,,,0.00,668,Wunderground v.1.15,2013-06-10 13:22:00,
2013-06-10 09:27:00,65.1,55.5,30.20,WSW,258,1.0,3.0,71,0.00,,,0.00,624,Wunderground v.1.15,2013-06-10 13:27:00,
2013-06-10 09:32:00,65.4,55.0,30.20,NNE,20,2.0,5.0,69,0.00,,,0.00,608,Wunderground v.1.15,2013-06-10 13:32:00,
2013-06-10 09:37:00,65.7,54.8,30.20,North,5,2.0,5.0,68,0.00,,,0.00,661,Wunderground v.1.15,2013-06-10 13:37:00,
2013-06-10 09:42:00,65.8,54.9,30.20,SW,214,1.0,2.0,68,0.00,,,0.00,693,Wunderground v.1.15,2013-06-10 13:42:00,
2013-06-10 09:47:00,66.3,55.0,30.20,South,190,1.0,2.0,67,0.00,,,0.00,649,Wunderground v.1.15,2013-06-10 13:47:00,
2013-06-10 09:53:00,66.8,55.5,30.20,SSW,212,1.0,1.0,67,0.00,,,0.00,643,Wunderground v.1.15,2013-06-10 13:53:00,
2013-06-10 09:59:00,67.5,55.3,30.20,WNW,285,1.0,1.0,65,0.00,,,0.00,728,Wunderground v.1.15,2013-06-10 13:59:00,
2013-06-10 10:05:00,67.6,55.0,30.19,West,273,1.0,4.0,64,0.00,,,0.00,466,Wunderground v.1.15,2013-06-10 14:05:00,
2013-06-10 10:10:00,67.6,55.4,30.19,NNW,344,2.0,3.0,65,0.00,,,0.00,765,Wunderground v.1.15,2013-06-10 14:10:00,
2013-06-10 10:16:00,67.9,55.3,30.19,NE,44,1.0,3.0,64,0.00,,,0.00,752,Wunderground v.1.15,2013-06-10 14:16:00,
2013-06-10 10:21:00,68.4,55.7,30.19,North,355,1.0,2.0,64,0.00,,,0.00,756,Wunderground v.1.15,2013-06-10 14:21:00,
2013-06-10 10:27:00,68.3,55.2,30.19,WNW,293,1.0,3.0,63,0.00,,,0.00,731,Wunderground v.1.15,2013-06-10 14:27:00,
2013-06-10 10:32:00,68.6,55.1,30.19,North,355,1.0,1.0,62,0.00,,,0.00,768,Wunderground v.1.15,2013-06-10 14:32:00,
2013-06-10 10:37:00,68.8,54.8,30.19,NE,41,1.0,2.0,61,0.00,,,0.00,814,Wunderground v.1.15,2013-06-10 14:37:00,
2013-06-10 10:42:00,69.2,56.1,30.19,NE,40,1.0,2.0,63,0.00,,,0.00,824,Wunderground v.1.15,2013-06-10 14:42:00,
2013-06-10 10:47:00,69.7,55.2,30.18,NNW,327,1.0,3.0,60,0.00,,,0.00,828,Wunderground v.1.15,2013-06-10 14:47:00,
2013-06-10 10:53:00,69.4,54.0,30.19,East,92,2.0,2.0,58,0.00,,,0.00,846,Wunderground v.1.15,2013-06-10 14:53:00,
2013-06-10 10:58:00,69.5,54.5,30.19,NNW,344,2.0,3.0,59,0.00,,,0.00,824,Wunderground v.1.15,2013-06-10 14:58:00,
2013-06-10 11:03:00,69.9,56.3,30.18,ENE,78,1.0,2.0,62,0.00,,,0.00,798,Wunderground v.1.15,2013-06-10 15:03:00,
2013-06-10 11:08:00,70.2,55.2,30.18,NNW,344,0.0,2.0,59,0.00,,,0.00,666,Wunderground v.1.15,2013-06-10 15:08:00,
2013-06-10 11:14:00,70.6,55.1,30.19,SSE,157,0.0,1.0,58,0.00,,,0.00,714,Wunderground v.1.15,2013-06-10 15:14:00,
2013-06-10 11:20:00,71.0,55.5,30.19,South,178,1.0,1.0,58,0.00,,,0.00,650,Wunderground v.1.15,2013-06-10 15:20:00,
2013-06-10 11:26:00,71.3,56.2,30.18,South,190,1.0,1.0,59,0.00,,,0.00,698,Wunderground v.1.15,2013-06-10 15:26:00,
2013-06-10 11:32:00,71.5,56.4,30.19,SW,228,1.0,4.0,59,0.00,,,0.00,751,Wunderground v.1.15,2013-06-10 15:32:00,
2013-06-10 11:37:00,71.5,55.9,30.19,SSW,192,2.0,4.0,58,0.00,,,0.00,867,Wunderground v.1.15,2013-06-10 15:37:00,
2013-06-10 11:42:00,71.5,56.4,30.19,South,188,3.0,4.0,59,0.00,,,0.00,870,Wunderground v.1.15,2013-06-10 15:42:00,
2013-06-10 11:48:00,71.6,56.5,30.19,SW,227,3.0,5.0,59,0.00,,,0.00,926,Wunderground v.1.15,2013-06-10 15:48:00,
2013-06-10 11:54:00,71.8,56.7,30.19,South,180,2.0,5.0,59,0.00,,,0.00,657,Wunderground v.1.15,2013-06-10 15:54:00,
2013-06-10 12:00:00,71.7,56.1,30.19,SSW,198,3.0,3.0,58,0.00,,,0.00,788,Wunderground v.1.15,2013-06-10 16:00:00,
2013-06-10 12:05:00,71.2,57.5,30.19,SSW,202,3.0,6.0,62,0.00,,,0.00,485,Wunderground v.1.15,2013-06-10 16:05:00,
2013-06-10 12:10:00,70.5,57.7,30.18,SW,214,4.0,4.0,64,0.00,,,0.00,881,Wunderground v.1.15,2013-06-10 16:10:00,
2013-06-10 12:16:00,70.0,58.5,30.18,SSE,167,4.0,6.0,67,0.00,,,0.00,671,Wunderground v.1.15,2013-06-10 16:16:00,
2013-06-10 12:21:00,69.7,57.8,30.18,South,180,3.0,3.0,66,0.00,,,0.00,513,Wunderground v.1.15,2013-06-10 16:21:00,
2013-06-10 12:27:00,69.5,57.6,30.18,SW,229,3.0,6.0,66,0.00,,,0.00,577,Wunderground v.1.15,2013-06-10 16:27:00,
2013-06-10 12:32:00,69.5,57.2,30.18,SW,223,3.0,5.0,65,0.00,,,0.00,844,Wunderground v.1.15,2013-06-10 16:32:00,
2013-06-10 12:37:00,69.4,57.1,30.17,WSW,248,2.0,5.0,65,0.00,,,0.00,737,Wunderground v.1.15,2013-06-10 16:37:00,
2013-06-10 12:43:00,69.0,56.3,30.17,SSW,195,3.0,7.0,64,0.00,,,0.00,552,Wunderground v.1.15,2013-06-10 16:43:00,
2013-06-10 12:49:00,68.7,57.3,30.17,SSW,213,3.0,7.0,67,0.00,,,0.00,656,Wunderground v.1.15,2013-06-10 16:49:00,
2013-06-10 12:55:00,68.5,56.7,30.17,SSW,200,2.0,4.0,66,0.00,,,0.00,751,Wunderground v.1.15,2013-06-10 16:55:00,
2013-06-10 13:00:00,68.3,55.2,30.16,SSW,193,4.0,5.0,63,0.00,,,0.00,761,Wunderground v.1.15,2013-06-10 17:00:00,
2013-06-10 13:06:00,68.0,55.8,30.16,SSW,192,5.0,6.0,65,0.00,,,0.00,693,Wunderground v.1.15,2013-06-10 17:06:00,
2013-06-10 13:11:00,68.2,56.8,30.16,SW,221,3.0,7.0,67,0.00,,,0.00,675,Wunderground v.1.15,2013-06-10 17:11:00,
2013-06-10 13:17:00,68.1,56.7,30.17,SSW,201,3.0,7.0,67,0.00,,,0.00,638,Wunderground v.1.15,2013-06-10 17:17:00,
2013-06-10 13:23:00,67.5,55.7,30.17,SW,215,4.0,8.0,66,0.00,,,0.00,657,Wunderground v.1.15,2013-06-10 17:23:00,
2013-06-10 13:28:00,67.3,55.5,30.17,South,186,4.0,9.0,66,0.00,,,0.00,577,Wunderground v.1.15,2013-06-10 17:28:00,
2013-06-10 13:33:00,67.1,54.5,30.17,South,190,4.0,7.0,64,0.00,,,0.00,490,Wunderground v.1.15,2013-06-10 17:33:00,
2013-06-10 13:38:00,66.5,54.8,30.17,South,186,5.0,7.0,66,0.00,,,0.00,561,Wunderground v.1.15,2013-06-10 17:38:00,
2013-06-10 13:43:00,66.6,55.7,30.17,SW,219,4.0,6.0,68,0.00,,,0.00,596,Wunderground v.1.15,2013-06-10 17:43:00,
2013-06-10 13:48:00,66.5,54.8,30.17,SSW,196,4.0,7.0,66,0.00,,,0.00,626,Wunderground v.1.15,2013-06-10 17:48:00,
2013-06-10 13:53:00,66.3,54.2,30.17,SSE,166,5.0,5.0,65,0.00,,,0.00,663,Wunderground v.1.15,2013-06-10 17:53:00,
2013-06-10 13:59:00,66.1,54.4,30.17,SSE,167,4.0,8.0,66,0.00,,,0.00,548,Wunderground v.1.15,2013-06-10 17:59:00,
2013-06-10 14:05:00,65.9,54.6,30.17,SW,218,5.0,5.0,67,0.00,,,0.00,459,Wunderground v.1.15,2013-06-10 18:05:00,
2013-06-10 14:10:00,65.7,54.8,30.17,South,190,5.0,5.0,68,0.00,,,0.00,411,Wunderground v.1.15,2013-06-10 18:10:00,
2013-06-10 14:16:00,65.3,54.9,30.17,South,190,5.0,8.0,69,0.00,,,0.00,388,Wunderground v.1.15,2013-06-10 18:16:00,
2013-06-10 14:21:00,64.9,54.5,30.17,SSW,198,5.0,5.0,69,0.00,,,0.00,369,Wunderground v.1.15,2013-06-10 18:21:00,
2013-06-10 14:27:00,64.4,54.8,30.17,South,191,4.0,8.0,71,0.00,,,0.00,387,Wunderground v.1.15,2013-06-10 18:27:00,
2013-06-10 14:33:00,64.0,54.8,30.17,SSW,207,4.0,6.0,72,0.00,,,0.00,410,Wunderground v.1.15,2013-06-10 18:33:00,
2013-06-10 14:39:00,63.4,53.8,30.17,SSE,167,5.0,7.0,71,0.00,,,0.00,403,Wunderground v.1.15,2013-06-10 18:39:00,
2013-06-10 14:44:00,62.7,53.5,30.17,SSW,205,5.0,6.0,72,0.00,,,0.00,417,Wunderground v.1.15,2013-06-10 18:44:00,
2013-06-10 14:50:00,62.7,53.9,30.17,SE,129,4.0,9.0,73,0.00,,,0.00,399,Wunderground v.1.15,2013-06-10 18:50:00,
2013-06-10 14:55:00,62.7,54.3,30.17,South,185,4.0,9.0,74,0.00,,,0.00,385,Wunderground v.1.15,2013-06-10 18:55:00,
2013-06-10 15:00:00,62.9,54.1,30.17,SSW,203,4.0,4.0,73,0.00,,,0.00,390,Wunderground v.1.15,2013-06-10 19:00:00,
2013-06-10 15:05:00,63.0,53.8,30.17,SSE,161,4.0,5.0,72,0.00,,,0.00,385,Wunderground v.1.15,2013-06-10 19:05:00,
2013-06-10 15:11:00,63.2,54.0,30.16,SSE,167,3.0,4.0,72,0.00,,,0.00,355,Wunderground v.1.15,2013-06-10 19:11:00,
2013-06-10 15:17:00,63.1,53.9,30.16,SW,214,4.0,6.0,72,0.00,,,0.00,348,Wunderground v.1.15,2013-06-10 19:17:00,
2013-06-10 15:22:00,63.0,53.8,30.16,SE,146,5.0,5.0,72,0.00,,,0.00,338,Wunderground v.1.15,2013-06-10 19:22:00,
2013-06-10 15:27:00,63.0,53.8,30.16,ESE,123,4.0,7.0,72,0.00,,,0.00,338,Wunderground v.1.15,2013-06-10 19:27:00,
2013-06-10 15:33:00,62.7,52.8,30.16,SSW,210,4.0,8.0,70,0.00,,,0.00,329,Wunderground v.1.15,2013-06-10 19:33:00,
2013-06-10 15:38:00,62.5,53.0,30.16,SSW,197,4.0,8.0,71,0.00,,,0.00,325,Wunderground v.1.15,2013-06-10 19:38:00,
2013-06-10 15:44:00,62.2,52.7,30.16,SE,141,4.0,7.0,71,0.00,,,0.00,318,Wunderground v.1.15,2013-06-10 19:44:00,
2013-06-10 15:49:00,62.3,53.2,30.15,South,186,4.0,7.0,72,0.00,,,0.00,290,Wunderground v.1.15,2013-06-10 19:49:00,
2013-06-10 15:55:00,62.5,53.0,30.15,South,190,2.0,5.0,71,0.00,,,0.00,283,Wunderground v.1.15,2013-06-10 19:55:00,
2013-06-10 16:00:00,62.7,53.2,30.16,SSE,161,2.0,3.0,71,0.00,,,0.00,285,Wunderground v.1.15,2013-06-10 20:00:00,
2013-06-10 16:05:00,62.5,52.6,30.16,South,182,3.0,4.0,70,0.00,,,0.00,285,Wunderground v.1.15,2013-06-10 20:05:00,
2013-06-10 16:11:00,62.4,52.9,30.16,SSE,159,3.0,3.0,71,0.00,,,0.00,278,Wunderground v.1.15,2013-06-10 20:11:00,
2013-06-10 16:17:00,62.5,53.0,30.16,SE,144,2.0,4.0,71,0.00,,,0.00,264,Wunderground v.1.15,2013-06-10 20:17:00,
2013-06-10 16:22:00,62.5,53.0,30.15,SSW,206,2.0,6.0,71,0.00,,,0.00,258,Wunderground v.1.15,2013-06-10 20:22:00,
2013-06-10 16:28:00,62.2,52.3,30.15,SSE,164,3.0,6.0,70,0.00,,,0.00,229,Wunderground v.1.15,2013-06-10 20:28:00,
2013-06-10 16:34:00,61.9,52.4,30.15,SE,142,4.0,5.0,71,0.00,,,0.00,214,Wunderground v.1.15,2013-06-10 20:34:00,
2013-06-10 16:40:00,61.9,52.8,30.15,SSE,155,3.0,3.0,72,0.00,,,0.00,195,Wunderground v.1.15,2013-06-10 20:40:00,
2013-06-10 16:45:00,61.8,52.7,30.15,SSE,148,2.0,3.0,72,0.00,,,0.00,190,Wunderground v.1.15,2013-06-10 20:45:00,
2013-06-10 16:50:00,61.6,52.5,30.14,South,171,3.0,3.0,72,0.00,,,0.00,181,Wunderground v.1.15,2013-06-10 20:50:00,
2013-06-10 16:55:00,61.4,52.7,30.14,SSW,209,3.0,6.0,73,0.00,,,0.00,174,Wunderground v.1.15,2013-06-10 20:55:00,
2013-06-10 17:00:00,61.3,52.9,30.14,SSE,161,2.0,2.0,74,0.00,,,0.00,174,Wunderground v.1.15,2013-06-10 21:00:00,
2013-06-10 17:05:00,61.4,53.0,30.14,SSW,210,1.0,3.0,74,0.00,,,0.00,165,Wunderground v.1.15,2013-06-10 21:05:00,
2013-06-10 17:11:00,61.4,53.0,30.13,SE,142,2.0,2.0,74,0.00,,,0.00,163,Wunderground v.1.15,2013-06-10 21:11:00,
2013-06-10 17:17:00,61.2,53.2,30.13,SSE,153,2.0,6.0,75,0.00,,,0.00,158,Wunderground v.1.15,2013-06-10 21:17:00,
2013-06-10 17:22:00,61.1,53.1,30.13,SSW,207,2.0,3.0,75,0.00,,,0.00,160,Wunderground v.1.15,2013-06-10 21:22:00,
2013-06-10 17:28:00,60.9,52.9,30.13,SSW,202,3.0,6.0,75,0.00,,,0.00,165,Wunderground v.1.15,2013-06-10 21:28:00,
2013-06-10 17:34:00,60.7,53.1,30.12,SE,132,3.0,5.0,76,0.00,,,0.00,155,Wunderground v.1.15,2013-06-10 21:34:00,
2013-06-10 17:40:00,60.7,53.4,30.12,SSE,148,2.0,2.0,77,0.00,,,0.00,146,Wunderground v.1.15,2013-06-10 21:40:00,
2013-06-10 17:45:00,60.8,53.5,30.12,SSW,198,1.0,2.0,77,0.00,,,0.00,132,Wunderground v.1.15,2013-06-10 21:45:00,
2013-06-10 17:50:00,60.8,53.5,30.12,South,183,2.0,2.0,77,0.00,,,0.00,128,Wunderground v.1.15,2013-06-10 21:50:00,
2013-06-10 17:55:00,60.8,53.9,30.12,SE,143,2.0,3.0,78,0.00,,,0.00,120,Wunderground v.1.15,2013-06-10 21:55:00,
2013-06-10 18:00:00,60.9,54.0,30.12,SSE,163,1.0,2.0,78,0.00,,,0.00,111,Wunderground v.1.15,2013-06-10 22:00:00,
2013-06-10 18:05:00,60.8,53.9,30.12,SSW,207,2.0,3.0,78,0.00,,,0.00,105,Wunderground v.1.15,2013-06-10 22:05:00,
2013-06-10 18:11:00,60.8,53.9,30.12,SSW,207,1.0,1.0,78,0.00,,,0.00,95,Wunderground v.1.15,2013-06-10 22:11:00,
2013-06-10 18:17:00,60.7,54.1,30.12,South,186,1.0,4.0,79,0.00,,,0.00,88,Wunderground v.1.15,2013-06-10 22:17:00,
2013-06-10 18:23:00,60.4,54.2,30.12,SSE,164,2.0,3.0,80,0.00,,,0.00,83,Wunderground v.1.15,2013-06-10 22:23:00,
2013-06-10 18:28:00,60.3,54.1,30.12,South,180,1.0,3.0,80,0.00,,,0.00,77,Wunderground v.1.15,2013-06-10 22:28:00,
2013-06-10 18:33:00,60.2,54.0,30.12,SE,138,1.0,4.0,80,0.00,,,0.00,76,Wunderground v.1.15,2013-06-10 22:33:00,
2013-06-10 18:39:00,60.0,54.2,30.12,SE,137,2.0,4.0,81,0.00,,,0.00,69,Wunderground v.1.15,2013-06-10 22:39:00,
2013-06-10 18:44:00,59.9,54.1,30.12,South,184,2.0,3.0,81,0.00,,,0.00,56,Wunderground v.1.15,2013-06-10 22:44:00,
2013-06-10 18:49:00,59.7,54.2,30.11,SSE,165,2.0,3.0,82,0.00,,,0.00,53,Wunderground v.1.15,2013-06-10 22:49:00,
2013-06-10 18:54:00,59.6,54.4,30.11,South,175,2.0,4.0,83,0.00,,,0.00,49,Wunderground v.1.15,2013-06-10 22:54:00,
2013-06-10 18:59:00,59.5,54.3,30.11,SW,214,2.0,4.0,83,0.00,,,0.00,46,Wunderground v.1.15,2013-06-10 22:59:00,
2013-06-10 19:05:00,59.4,54.6,30.11,South,173,2.0,3.0,84,0.00,,,0.00,42,Wunderground v.1.15,2013-06-10 23:05:00,
2013-06-10 19:10:00,59.3,54.5,30.11,ESE,115,2.0,2.0,84,0.00,,,0.00,37,Wunderground v.1.15,2013-06-10 23:10:00,
2013-06-10 19:15:00,59.2,54.4,30.11,SSE,155,1.0,2.0,84,0.00,,,0.00,30,Wunderground v.1.15,2013-06-10 23:15:00,
2013-06-10 19:21:00,59.1,54.6,30.11,South,169,1.0,1.0,85,0.00,,,0.00,26,Wunderground v.1.15,2013-06-10 23:21:00,
2013-06-10 19:27:00,59.1,54.3,30.11,South,179,0.0,1.0,84,0.00,,,0.00,21,Wunderground v.1.15,2013-06-10 23:27:00,
2013-06-10 19:32:00,59.0,54.5,30.11,South,173,1.0,3.0,85,0.00,,,0.00,18,Wunderground v.1.15,2013-06-10 23:32:00,
2013-06-10 19:37:00,58.9,54.4,30.11,South,188,2.0,3.0,85,0.00,,,0.00,16,Wunderground v.1.15,2013-06-10 23:37:00,
2013-06-10 19:42:00,58.7,54.2,30.11,South,175,2.0,5.0,85,0.00,,,0.00,14,Wunderground v.1.15,2013-06-10 23:42:00,
2013-06-10 19:48:00,58.6,54.4,30.10,SSW,202,2.0,5.0,86,0.00,,,0.00,11,Wunderground v.1.15,2013-06-10 23:48:00,
2013-06-10 19:54:00,58.5,54.3,30.10,South,169,1.0,2.0,86,0.00,,,0.00,7,Wunderground v.1.15,2013-06-10 23:54:00,
2013-06-10 19:59:00,58.4,54.5,30.10,South,180,0.0,2.0,87,0.00,,,0.00,5,Wunderground v.1.15,2013-06-10 23:59:00,
2013-06-10 20:05:00,58.3,54.4,30.10,SW,227,1.0,1.0,87,0.00,,,0.00,0,Wunderground v.1.15,2013-06-11 00:05:00,
2013-06-10 20:11:00,58.2,54.3,30.10,South,191,1.0,1.0,87,0.00,,,0.00,0,Wunderground v.1.15,2013-06-11 00:11:00,
2013-06-10 20:16:00,58.0,54.5,30.10,South,169,1.0,4.0,88,0.00,,,0.00,0,Wunderground v.1.15,2013-06-11 00:16:00,
2013-06-10 20:22:00,58.0,54.5,30.10,South,172,1.0,2.0,88,0.00,,,0.00,0,Wunderground v.1.15,2013-06-11 00:22:00,
2013-06-10 20:28:00,57.9,54.4,30.09,South,178,0.0,4.0,88,0.00,,,0.00,0,Wunderground v.1.15,2013-06-11 00:28:00,
2013-06-10 20:33:00,57.8,54.3,30.09,South,170,1.0,3.0,88,0.00,,,0.00,0,Wunderground v.1.15,2013-06-11 00:33:00,
2013-06-10 20:38:00,57.7,54.5,30.09,SSW,205,2.0,5.0,89,0.00,,,0.00,0,Wunderground v.1.15,2013-06-11 00:38:00,
2013-06-10 20:44:00,57.6,54.4,30.10,SSW,192,2.0,2.0,89,0.00,,,0.00,0,Wunderground v.1.15,2013-06-11 00:44:00,
2013-06-10 20:49:00,57.6,54.7,30.10,South,180,1.0,3.0,90,0.00,,,0.00,0,Wunderground v.1.15,2013-06-11 00:49:00,
2013-06-10 20:54:00,57.5,54.6,30.10,SSW,199,0.0,1.0,90,0.00,,,0.00,0,Wunderground v.1.15,2013-06-11 00:54:00,
2013-06-10 20:59:00,57.5,54.6,30.10,SSW,203,0.0,1.0,90,0.00,,,0.00,0,Wunderground v.1.15,2013-06-11 00:59:00,
2013-06-10 21:04:00,57.4,54.5,30.10,SSW,202,0.0,2.0,90,0.00,,,0.00,0,Wunderground v.1.15,2013-06-11 01:04:00,
2013-06-10 21:10:00,57.4,54.5,30.10,SSE,165,1.0,3.0,90,0.00,,,0.00,0,Wunderground v.1.15,2013-06-11 01:10:00,
2013-06-10 21:15:00,57.3,54.7,30.10,South,174,2.0,4.0,91,0.00,,,0.00,0,Wunderground v.1.15,2013-06-11 01:15:00,
2013-06-10 21:20:00,57.2,54.6,30.10,South,170,2.0,2.0,91,0.00,,,0.00,0,Wunderground v.1.15,2013-06-11 01:20:00,
2013-06-10 21:26:00,57.1,54.5,30.10,South,172,2.0,3.0,91,0.00,,,0.00,0,Wunderground v.1.15,2013-06-11 01:26:00,
2013-06-10 21:31:00,57.1,54.5,30.10,SSW,200,2.0,4.0,91,0.00,,,0.00,0,Wunderground v.1.15,2013-06-11 01:31:00,
2013-06-10 21:37:00,57.0,54.4,30.10,South,169,1.0,4.0,91,0.00,,,0.00,0,Wunderground v.1.15,2013-06-11 01:37:00,
2013-06-10 21:42:00,57.0,54.7,30.09,South,180,0.0,1.0,92,0.00,,,0.00,0,Wunderground v.1.15,2013-06-11 01:42:00,
2013-06-10 21:48:00,56.9,54.6,30.09,South,180,0.0,3.0,92,0.00,,,0.00,0,Wunderground v.1.15,2013-06-11 01:48:00,
2013-06-10 21:54:00,56.9,54.6,30.09,SSE,159,1.0,2.0,92,0.00,,,0.00,0,Wunderground v.1.15,2013-06-11 01:54:00,
2013-06-10 22:00:00,56.9,54.6,30.09,South,174,1.0,1.0,92,0.00,,,0.00,0,Wunderground v.1.15,2013-06-11 02:00:00,
2013-06-10 22:05:00,56.9,54.6,30.09,SSE,155,1.0,1.0,92,0.00,,,0.00,0,Wunderground v.1.15,2013-06-11 02:05:00,
2013-06-10 22:11:00,56.8,54.5,30.09,SSE,156,0.0,0.0,92,0.00,,,0.00,0,Wunderground v.1.15,2013-06-11 02:11:00,
2013-06-10 22:16:00,56.8,54.5,30.09,SSE,161,0.0,1.0,92,0.00,,,0.00,0,Wunderground v.1.15,2013-06-11 02:16:00,
2013-06-10 22:22:00,56.8,54.5,30.09,SSW,202,0.0,1.0,92,0.00,,,0.00,0,Wunderground v.1.15,2013-06-11 02:22:00,
2013-06-10 22:28:00,56.7,54.4,30.09,SSE,154,1.0,2.0,92,0.00,,,0.00,0,Wunderground v.1.15,2013-06-11 02:28:00,
2013-06-10 22:34:00,56.7,54.7,30.08,SSE,153,1.0,3.0,93,0.00,,,0.00,0,Wunderground v.1.15,2013-06-11 02:34:00,
2013-06-10 22:40:00,56.6,54.6,30.08,South,169,1.0,1.0,93,0.00,,,0.00,0,Wunderground v.1.15,2013-06-11 02:40:00,
2013-06-10 22:46:00,56.6,54.6,30.08,SSE,166,1.0,3.0,93,0.00,,,0.00,0,Wunderground v.1.15,2013-06-11 02:46:00,
2013-06-10 22:51:00,56.6,54.6,30.08,SSW,201,2.0,2.0,93,0.00,,,0.00,0,Wunderground v.1.15,2013-06-11 02:51:00,
2013-06-10 22:56:00,56.6,54.6,30.08,SSW,203,2.0,2.0,93,0.00,,,0.00,0,Wunderground v.1.15,2013-06-11 02:56:00,
2013-06-10 23:02:00,56.6,54.6,30.08,SSW,201,2.0,4.0,93,0.00,,,0.00,0,Wunderground v.1.15,2013-06-11 03:02:00,
2013-06-10 23:07:00,56.5,54.5,30.08,SSW,197,2.0,4.0,93,0.00,,,0.00,0,Wunderground v.1.15,2013-06-11 03:07:00,
2013-06-10 23:12:00,56.5,54.5,30.07,South,170,2.0,4.0,93,0.00,,,0.00,0,Wunderground v.1.15,2013-06-11 03:12:00,
2013-06-10 23:17:00,56.4,54.4,30.07,South,185,2.0,5.0,93,0.00,,,0.00,0,Wunderground v.1.15,2013-06-11 03:17:00,
2013-06-10 23:23:00,56.4,54.7,30.07,South,175,2.0,4.0,94,0.00,,,0.00,0,Wunderground v.1.15,2013-06-11 03:23:00,
2013-06-10 23:28:00,56.4,54.7,30.07,SSE,168,2.0,4.0,94,0.00,,,0.00,0,Wunderground v.1.15,2013-06-11 03:28:00,
2013-06-10 23:34:00,56.4,54.7,30.07,SSE,165,2.0,4.0,94,0.00,,,0.00,0,Wunderground v.1.15,2013-06-11 03:34:00,
2013-06-10 23:40:00,56.4,54.7,30.06,South,190,2.0,2.0,94,0.00,,,0.00,0,Wunderground v.1.15,2013-06-11 03:40:00,
2013-06-10 23:45:00,56.4,54.7,30.06,SSE,163,1.0,4.0,94,0.00,,,0.00,0,Wunderground v.1.15,2013-06-11 03:45:00,
2013-06-10 23:51:00,56.3,54.6,30.06,SSE,166,1.0,1.0,94,0.00,,,0.00,0,Wunderground v.1.15,2013-06-11 03:51:00,
2013-06-10 23:57:00,56.3,54.6,30.06,SSE,166,1.0,1.0,94,0.00,,,0.00,0,Wunderground v.1.15,2013-06-11 03:57:00,